Main page
METAR-TAF:

METAR-TAF

Airports :

Jerez de la Frontera, Spain

Jerez Airport

latitude: 36-45N, longitude: 006-04W, elevation: 27 m

Current weather observation

The report was made 14 minutes ago, at 07:00 UTC
Wind 2 kt from variable directions
Temperature 6°C
Humidity 100%
Pressure 1021 hPa
Visibility: 6000 m
Broken clouds at a height of 800 ft

METAR: LEJR 180700Z VRB02KT 6000 BKN008 06/06 Q1021

Time: 08:14 (07:14 UTC)

Forecast

The report was made 2 hours and 14 minutes ago, at 05:00 UTC
Forecast valid from 18 at 06 UTC to 19 at 06 UTC
Wind 3 kt from the East
Visibility 10 km or more
Few clouds at a height of 3000 ft
Temporary
from 18 at 06 UTC to 18 at 10 UTC
Visibility: 3000 m
Broken clouds at a height of 1200 ft
mist
Probability 40% :
Temporary
from 18 at 06 UTC to 18 at 09 UTC
Visibility: 0300 m
at a height of 100 ft
fog

TAF: LEJR 180500Z 1806/1906 08003KT 9999 FEW030 TX19/1816Z TN04/1806Z TEMPO 1806/1810 3000 BR BKN012 PROB40 TEMPO 1806/1809 0300 FG VV001

Weather observations and forecasts of more than 4000 airports (METAR and TAF reports).

The available stations are represented by yellow and red dots on the map.

Hover mouse over dot to see the name of the station.

Then click to see weather observations and forecasts.

To change the map : click on the green buttons with a black cross to zoom in, on the green button with a dash to zoom out, or on the green arrows for adjacent maps.


METAR-TAF: